Time;durP1;ratioP1;P1;durP2;ratioP2;P2;SDS_P1;SDS_P2;PMS_P1;PMS_P2;Temp;Humidity;BMP_temperature;BMP_pressure;BME280_temperature;BME280_humidity;BME280_pressure;Samples;Min_cycle;Max_cycle;Signal;HPM_P1;HPM_P2
2022/07/23 00:01:36;;;;;;;18.90;11.70;;;26.10;42.10;;;;;;4993501;28;20186;-70
2022/07/23 00:04:02;;;;;;;15.33;11.00;;;25.90;45.90;;;;;;4994266;28;20205;-71
2022/07/23 00:06:27;;;;;;;21.20;11.87;;;25.90;46.90;;;;;;4994735;28;20240;-71
2022/07/23 00:08:53;;;;;;;17.80;11.70;;;25.80;46.90;;;;;;4994751;28;20453;-71
2022/07/23 00:11:19;;;;;;;14.47;11.63;;;25.80;46.90;;;;;;4993863;28;20186;-71
2022/07/23 00:13:45;;;;;;;15.73;11.90;;;25.80;48.40;;;;;;4994160;28;20177;-72
2022/07/23 00:16:11;;;;;;;12.93;10.63;;;25.70;47.80;;;;;;4986848;28;21005;-71
2022/07/23 00:18:36;;;;;;;17.27;11.23;;;25.40;41.90;;;;;;4992842;28;20229;-71
2022/07/23 00:21:02;;;;;;;16.50;11.60;;;25.50;46.70;;;;;;4993905;28;20240;-70
2022/07/23 00:23:29;;;;;;;15.37;10.97;;;25.60;46.70;;;;;;4993247;28;20186;-70
2022/07/23 00:25:54;;;;;;;20.30;10.63;;;25.70;47.60;;;;;;4990208;28;20527;-70
2022/07/23 00:28:20;;;;;;;15.80;10.83;;;25.80;46.50;;;;;;4994666;28;20519;-71
2022/07/23 00:30:46;;;;;;;16.27;10.97;;;25.80;46.20;;;;;;4992995;28;20189;-71
2022/07/23 00:33:11;;;;;;;11.77;10.57;;;25.60;46.10;;;;;;4992671;28;20657;-71
2022/07/23 00:35:40;;;;;;;12.90;11.27;;;25.60;46.70;;;;;;4993387;28;20292;-71
2022/07/23 00:38:07;;;;;;;14.93;11.60;;;25.70;46.30;;;;;;4994468;28;20236;-71
2022/07/23 00:40:34;;;;;;;13.90;10.60;;;25.80;44.50;;;;;;4993697;28;20476;-70
2022/07/23 00:42:59;;;;;;;15.43;10.77;;;25.10;43.90;;;;;;4990382;28;20436;-71
2022/07/23 00:45:26;;;;;;;17.80;12.97;;;25.10;48.50;;;;;;4991086;28;20475;-71
2022/07/23 00:47:51;;;;;;;16.10;11.70;;;24.80;48.30;;;;;;4993642;28;20189;-71
2022/07/23 00:50:17;;;;;;;16.27;12.27;;;24.40;49.30;;;;;;4992805;28;20456;-70
2022/07/23 00:52:43;;;;;;;15.60;11.33;;;24.40;49.20;;;;;;4993206;28;20666;-70
2022/07/23 00:55:10;;;;;;;22.80;11.10;;;24.50;47.70;;;;;;4990881;28;20213;-71
2022/07/23 00:57:38;;;;;;;18.43;11.57;;;25.20;50.30;;;;;;4993294;28;20185;-71
2022/07/23 01:00:06;;;;;;;15.47;10.67;;;25.70;47.70;;;;;;4993510;28;20476;-71
2022/07/23 01:02:31;;;;;;;15.50;11.70;;;26.10;45.70;;;;;;4991067;28;21046;-71
2022/07/23 01:04:57;;;;;;;13.87;11.27;;;26.40;42.60;;;;;;4956971;28;20524;-70
2022/07/23 01:07:23;;;;;;;14.97;11.20;;;26.30;45.80;;;;;;4993827;28;20181;-71
2022/07/23 01:09:51;;;;;;;13.00;10.83;;;26.10;45.60;;;;;;4993272;28;20289;-71
2022/07/23 01:12:16;;;;;;;13.60;11.20;;;26.00;46.50;;;;;;4993375;28;20506;-71
2022/07/23 01:14:42;;;;;;;15.10;12.40;;;26.20;45.70;;;;;;4977333;28;20510;-70
2022/07/23 01:17:07;;;;;;;14.97;11.40;;;26.10;46.60;;;;;;4987084;28;20192;-70
2022/07/23 01:19:33;;;;;;;14.30;10.90;;;26.30;46.10;;;;;;4993601;28;20213;-71
2022/07/23 01:22:02;;;;;;;15.57;12.40;;;26.10;47.10;;;;;;4990761;28;20233;-71
2022/07/23 01:24:27;;;;;;;15.10;11.17;;;26.00;46.30;;;;;;4990187;28;20209;-71
2022/07/23 01:26:53;;;;;;;16.93;12.13;;;26.20;44.30;;;;;;4991600;28;20886;-71
2022/07/23 01:29:20;;;;;;;13.77;12.30;;;26.30;45.60;;;;;;4990730;28;20206;-71
2022/07/23 01:31:47;;;;;;;22.03;12.50;;;26.10;47.10;;;;;;4991484;28;20174;-70
2022/07/23 01:34:12;;;;;;;16.07;11.73;;;26.00;48.30;;;;;;4989999;28;20443;-72
2022/07/23 01:36:38;;;;;;;14.20;11.27;;;26.00;47.90;;;;;;4990321;28;20468;-71
2022/07/23 01:39:06;;;;;;;13.10;11.17;;;25.90;47.30;;;;;;4992714;28;20214;-71
2022/07/23 01:41:32;;;;;;;14.27;11.13;;;25.80;46.30;;;;;;4991594;28;20193;-71
2022/07/23 01:43:57;;;;;;;18.30;10.73;;;25.60;44.80;;;;;;4990141;28;20421;-71
2022/07/23 01:46:23;;;;;;;12.70;10.93;;;25.60;44.50;;;;;;4992971;28;20263;-71
2022/07/23 01:48:49;;;;;;;13.67;11.10;;;25.50;44.20;;;;;;4990707;28;20210;-71
2022/07/23 01:51:15;;;;;;;14.70;10.40;;;25.60;44.40;;;;;;4991729;28;20178;-71
2022/07/23 01:53:41;;;;;;;12.03;9.73;;;25.60;43.20;;;;;;4988393;28;20506;-70
2022/07/23 01:56:06;;;;;;;13.57;10.70;;;25.40;42.30;;;;;;4990282;28;20213;-71
2022/07/23 01:58:32;;;;;;;14.20;10.77;;;25.60;41.90;;;;;;4990552;28;20784;-71
2022/07/23 02:00:58;;;;;;;18.73;10.60;;;25.50;42.10;;;;;;4989034;28;20434;-71
2022/07/23 02:03:25;;;;;;;14.83;10.30;;;25.40;41.40;;;;;;4990231;28;20194;-71
2022/07/23 02:05:50;;;;;;;13.30;10.13;;;25.20;42.20;;;;;;4990375;28;20186;-71
2022/07/23 02:08:16;;;;;;;12.27;10.10;;;25.20;40.90;;;;;;4983344;28;20772;-71
2022/07/23 02:10:42;;;;;;;13.93;9.23;;;25.20;39.80;;;;;;4993025;28;20288;-71
2022/07/23 02:13:08;;;;;;;17.30;10.37;;;25.30;40.40;;;;;;4991194;28;20967;-71
2022/07/23 02:15:34;;;;;;;12.53;9.97;;;25.60;41.00;;;;;;4991118;28;20469;-71
2022/07/23 02:18:00;;;;;;;11.40;10.23;;;25.90;38.40;;;;;;4989421;28;20189;-71
2022/07/23 02:20:26;;;;;;;16.70;10.10;;;25.90;40.40;;;;;;4991780;28;20506;-71
2022/07/23 02:22:51;;;;;;;12.30;10.00;;;25.90;37.70;;;;;;4991517;28;20269;-71
2022/07/23 02:25:17;;;;;;;14.07;10.43;;;25.80;38.20;;;;;;4990527;28;20228;-71
2022/07/23 02:27:43;;;;;;;16.37;10.80;;;25.70;39.50;;;;;;4991564;28;20232;-71
2022/07/23 02:30:09;;;;;;;13.33;9.70;;;25.90;39.10;;;;;;4991362;28;20745;-71
2022/07/23 02:32:36;;;;;;;11.40;9.80;;;25.80;40.80;;;;;;4983743;28;20318;-71
2022/07/23 02:35:03;;;;;;;20.40;10.63;;;25.50;36.70;;;;;;4992034;28;20461;-70
2022/07/23 02:37:29;;;;;;;12.67;9.70;;;25.10;41.30;;;;;;4990724;28;20444;-71
2022/07/23 02:39:55;;;;;;;12.20;10.80;;;25.20;43.90;;;;;;4992383;28;20440;-71
2022/07/23 02:42:20;;;;;;;13.67;11.07;;;25.30;44.40;;;;;;4981860;28;20178;-71
2022/07/23 02:44:46;;;;;;;15.80;12.80;;;25.60;40.70;;;;;;4992171;28;20448;-71
2022/07/23 02:47:12;;;;;;;18.40;11.73;;;25.50;41.00;;;;;;4988720;28;20198;-71
2022/07/23 02:49:37;;;;;;;14.27;11.13;;;25.20;43.40;;;;;;4990374;28;20653;-71
2022/07/23 02:52:04;;;;;;;15.37;11.30;;;25.30;43.70;;;;;;4990684;28;20277;-71
2022/07/23 02:54:29;;;;;;;17.23;10.57;;;24.70;45.50;;;;;;4990029;28;20188;-71
2022/07/23 02:56:55;;;;;;;12.27;10.43;;;24.70;46.00;;;;;;4991472;28;20441;-70
2022/07/23 02:59:21;;;;;;;17.43;11.27;;;24.40;46.10;;;;;;4989996;28;20208;-71
2022/07/23 03:01:46;;;;;;;14.93;11.00;;;24.30;47.70;;;;;;4986691;28;20178;-71
2022/07/23 03:04:12;;;;;;;16.50;11.17;;;24.90;48.10;;;;;;4991140;28;20432;-70
2022/07/23 03:06:38;;;;;;;16.67;11.03;;;25.40;46.60;;;;;;4992097;28;20181;-71
2022/07/23 03:09:04;;;;;;;14.20;10.30;;;25.80;43.50;;;;;;4986450;28;20217;-71
2022/07/23 03:11:30;;;;;;;13.03;10.40;;;26.10;43.40;;;;;;4991227;28;20186;-71
2022/07/23 03:13:56;;;;;;;13.23;10.17;;;25.90;41.30;;;;;;4990566;28;20448;-71
2022/07/23 03:16:21;;;;;;;16.00;10.20;;;25.90;41.00;;;;;;4983971;28;20198;-71
2022/07/23 03:18:47;;;;;;;12.40;10.00;;;26.00;42.20;;;;;;4990789;28;20569;-71
2022/07/23 03:21:13;;;;;;;12.00;10.50;;;26.20;39.30;;;;;;4975079;28;20182;-71
2022/07/23 03:23:39;;;;;;;14.73;10.13;;;26.10;39.70;;;;;;4991188;28;20240;-71
2022/07/23 03:26:04;;;;;;;18.03;10.73;;;26.10;40.20;;;;;;4990908;28;20200;-71
2022/07/23 03:28:30;;;;;;;13.83;10.40;;;25.80;42.10;;;;;;4991507;28;20205;-71
2022/07/23 03:30:56;;;;;;;25.77;11.43;;;25.80;43.30;;;;;;4989084;28;20655;-71
2022/07/23 03:33:22;;;;;;;13.80;9.90;;;25.60;44.90;;;;;;4982321;28;20440;-71
2022/07/23 03:35:48;;;;;;;13.03;10.50;;;25.60;44.60;;;;;;4991723;28;20464;-71
2022/07/23 03:38:14;;;;;;;16.80;10.70;;;25.70;43.70;;;;;;4992081;28;20235;-71
2022/07/23 03:40:40;;;;;;;14.47;10.77;;;25.60;45.50;;;;;;4989950;28;20909;-70
2022/07/23 03:43:06;;;;;;;13.43;11.33;;;25.40;45.90;;;;;;4991258;28;20178;-71
2022/07/23 03:45:32;;;;;;;20.63;10.70;;;25.50;45.90;;;;;;4990888;28;20459;-71
2022/07/23 03:47:57;;;;;;;14.40;11.77;;;25.40;46.30;;;;;;4991422;28;20452;-71
2022/07/23 03:50:23;;;;;;;15.83;11.37;;;25.30;46.50;;;;;;4991820;28;20421;-70
2022/07/23 03:52:49;;;;;;;16.40;11.63;;;25.30;46.10;;;;;;4989581;28;20185;-71
2022/07/23 03:55:15;;;;;;;16.17;10.57;;;25.30;47.20;;;;;;4993361;28;20206;-71
2022/07/23 03:57:41;;;;;;;15.40;11.30;;;25.20;46.30;;;;;;4993293;28;20210;-71
2022/07/23 04:00:09;;;;;;;15.50;11.77;;;25.30;44.30;;;;;;4994679;28;20206;-71
2022/07/23 04:02:35;;;;;;;13.90;11.07;;;25.50;44.70;;;;;;4993120;28;20840;-71
2022/07/23 04:05:01;;;;;;;17.27;11.23;;;25.30;46.50;;;;;;4995016;28;20781;-71
2022/07/23 04:07:26;;;;;;;15.93;11.43;;;25.00;47.10;;;;;;4993879;28;20436;-71
2022/07/23 04:09:52;;;;;;;12.70;11.17;;;25.00;48.00;;;;;;4995268;28;20577;-70
2022/07/23 04:12:18;;;;;;;12.63;11.37;;;25.00;47.70;;;;;;4992217;28;20645;-70
2022/07/23 04:14:44;;;;;;;12.73;10.13;;;25.10;46.80;;;;;;4989665;28;20527;-71
2022/07/23 04:17:11;;;;;;;13.97;10.87;;;25.30;44.80;;;;;;4993460;28;20215;-71
2022/07/23 04:19:39;;;;;;;16.70;11.77;;;25.30;43.40;;;;;;4994147;28;20967;-71
2022/07/23 04:22:06;;;;;;;14.30;11.10;;;25.50;43.10;;;;;;4994194;28;20425;-71
2022/07/23 04:24:32;;;;;;;14.27;11.00;;;25.50;41.00;;;;;;4992399;28;20946;-71
2022/07/23 04:26:57;;;;;;;17.30;11.30;;;25.50;43.50;;;;;;4994418;28;20425;-72
2022/07/23 04:29:23;;;;;;;14.00;11.40;;;25.50;42.80;;;;;;4994868;28;20424;-71
2022/07/23 04:31:49;;;;;;;17.47;10.70;;;25.40;42.20;;;;;;4993284;28;20289;-71
2022/07/23 04:34:15;;;;;;;14.87;11.57;;;25.40;41.90;;;;;;4991621;28;20549;-70
2022/07/23 04:36:40;;;;;;;17.87;11.90;;;25.40;42.80;;;;;;4985168;28;20259;-70
2022/07/23 04:39:06;;;;;;;17.83;11.03;;;25.50;41.50;;;;;;4993886;28;20204;-72
2022/07/23 04:41:32;;;;;;;14.30;11.60;;;25.40;39.60;;;;;;4992603;28;20220;-71
2022/07/23 04:43:58;;;;;;;13.97;11.20;;;25.40;43.20;;;;;;4993180;28;20188;-71
2022/07/23 04:46:23;;;;;;;16.70;11.07;;;25.70;41.60;;;;;;4989322;28;20523;-71
2022/07/23 04:48:49;;;;;;;13.57;11.20;;;25.80;42.70;;;;;;4994298;28;20251;-70
2022/07/23 04:51:14;;;;;;;17.57;11.53;;;25.60;43.50;;;;;;4992620;28;20649;-71
2022/07/23 04:53:40;;;;;;;15.80;11.60;;;25.50;44.80;;;;;;4993029;28;20185;-69
2022/07/23 04:56:06;;;;;;;14.90;11.77;;;25.50;43.70;;;;;;4991795;28;20206;-71
2022/07/23 04:58:32;;;;;;;14.27;10.93;;;25.50;42.90;;;;;;4993505;28;20216;-71
2022/07/23 05:00:57;;;;;;;12.37;10.97;;;25.60;41.00;;;;;;4989020;28;20199;-70
2022/07/23 05:03:23;;;;;;;15.40;11.80;;;25.70;40.10;;;;;;4993515;28;20178;-70
2022/07/23 05:05:49;;;;;;;20.10;12.20;;;25.80;41.00;;;;;;4990163;28;20182;-71
2022/07/23 05:08:14;;;;;;;24.03;11.87;;;25.80;40.20;;;;;;4993698;28;20239;-71
2022/07/23 05:10:40;;;;;;;20.53;12.57;;;25.90;37.90;;;;;;5015752;23;20190;-75
2022/07/23 05:13:06;;;;;;;13.70;11.80;;;25.90;38.50;;;;;;4987015;28;20197;-74
2022/07/23 05:15:31;;;;;;;22.90;12.60;;;26.10;39.90;;;;;;4993346;28;20206;-74
2022/07/23 05:17:57;;;;;;;17.00;11.53;;;26.00;40.70;;;;;;4988719;28;20236;-75
2022/07/23 05:20:23;;;;;;;20.80;15.10;;;25.90;41.30;;;;;;4991475;28;20665;-75
2022/07/23 05:22:48;;;;;;;21.70;14.43;;;25.80;41.70;;;;;;4973497;28;20194;-74
2022/07/23 05:25:14;;;;;;;21.70;14.27;;;25.80;42.40;;;;;;4972805;28;20241;-74
2022/07/23 05:27:40;;;;;;;26.47;15.17;;;25.90;38.70;;;;;;4971990;28;20223;-75
2022/07/23 05:30:06;;;;;;;22.07;14.60;;;26.10;39.70;;;;;;4972083;28;20189;-75
2022/07/23 05:32:32;;;;;;;23.10;14.03;;;26.00;40.80;;;;;;4967560;28;20260;-75
2022/07/23 05:34:58;;;;;;;20.40;13.73;;;26.00;42.30;;;;;;4971807;28;21075;-75
2022/07/23 05:37:23;;;;;;;20.03;13.00;;;25.90;42.80;;;;;;4972057;28;20577;-75
2022/07/23 05:39:49;;;;;;;18.97;12.67;;;25.90;43.30;;;;;;4973003;28;20265;-75
2022/07/23 05:42:14;;;;;;;16.53;12.00;;;25.80;42.70;;;;;;4972014;28;20284;-75
2022/07/23 05:44:40;;;;;;;18.83;12.57;;;25.80;41.50;;;;;;4972403;28;20179;-74
2022/07/23 05:47:06;;;;;;;15.10;11.20;;;25.90;42.00;;;;;;4972729;28;20260;-75
2022/07/23 05:49:31;;;;;;;17.93;11.70;;;25.90;40.20;;;;;;4971632;28;20186;-75
2022/07/23 05:51:57;;;;;;;14.60;11.73;;;26.00;40.60;;;;;;4971731;28;20210;-74
2022/07/23 05:54:23;;;;;;;15.93;11.70;;;26.00;39.30;;;;;;4972395;28;20182;-75
2022/07/23 05:56:50;;;;;;;14.83;12.40;;;25.80;41.70;;;;;;4971601;28;20704;-75
2022/07/23 05:59:15;;;;;;;14.60;11.70;;;25.80;42.60;;;;;;4969281;28;20178;-75
2022/07/23 06:01:41;;;;;;;14.00;11.80;;;26.00;37.60;;;;;;4972037;28;20464;-75
2022/07/23 06:04:07;;;;;;;14.03;11.50;;;25.90;36.90;;;;;;4972836;28;20385;-75
2022/07/23 06:06:33;;;;;;;12.57;10.90;;;25.80;41.10;;;;;;4973528;28;20414;-74
2022/07/23 06:08:58;;;;;;;17.30;11.73;;;26.00;36.30;;;;;;4973261;28;20608;-75
2022/07/23 06:11:24;;;;;;;13.63;10.87;;;26.30;37.20;;;;;;4970857;28;20717;-75
2022/07/23 06:13:50;;;;;;;15.30;11.00;;;26.50;37.70;;;;;;4965464;28;20270;-75
2022/07/23 06:16:15;;;;;;;14.60;10.73;;;26.40;36.20;;;;;;4971219;28;20213;-75
2022/07/23 06:18:41;;;;;;;15.50;11.07;;;26.60;37.90;;;;;;4969239;28;20186;-74
2022/07/23 06:21:06;;;;;;;14.73;11.40;;;26.50;38.50;;;;;;4971079;28;20309;-75
2022/07/23 06:23:32;;;;;;;13.70;11.10;;;26.70;35.90;;;;;;4970245;28;20191;-75
2022/07/23 06:25:58;;;;;;;13.47;11.07;;;26.90;35.70;;;;;;4970467;28;20201;-75
2022/07/23 06:28:23;;;;;;;15.80;10.80;;;26.80;36.60;;;;;;4970396;28;20582;-75
2022/07/23 06:30:49;;;;;;;17.60;11.40;;;26.90;35.90;;;;;;4968950;28;20213;-75
2022/07/23 06:33:15;;;;;;;14.13;11.20;;;26.80;37.60;;;;;;4969502;28;20645;-74
2022/07/23 06:35:40;;;;;;;12.80;10.93;;;27.00;33.90;;;;;;4970033;28;20642;-75
2022/07/23 06:38:06;;;;;;;13.73;10.70;;;27.10;33.70;;;;;;4967495;28;20189;-75
2022/07/23 06:40:31;;;;;;;13.30;10.40;;;26.70;32.90;;;;;;4971366;28;20264;-75
2022/07/23 06:42:57;;;;;;;18.60;10.63;;;26.70;33.60;;;;;;4970408;28;20190;-77
2022/07/23 06:45:22;;;;;;;12.70;10.57;;;26.90;34.30;;;;;;4969137;28;20195;-74
2022/07/23 06:47:48;;;;;;;15.47;11.80;;;26.00;34.50;;;;;;4967676;28;20262;-73
2022/07/23 06:50:14;;;;;;;15.40;10.93;;;26.00;35.10;;;;;;4966180;28;20675;-74
2022/07/23 06:52:39;;;;;;;17.60;11.43;;;25.70;35.70;;;;;;4964430;28;20217;-74
2022/07/23 06:55:05;;;;;;;14.37;10.57;;;25.90;36.20;;;;;;4969595;28;21021;-74
2022/07/23 06:57:31;;;;;;;14.60;11.33;;;26.60;35.60;;;;;;4966622;28;20190;-74
2022/07/23 06:59:56;;;;;;;14.30;11.30;;;26.60;34.10;;;;;;4968287;28;20451;-73
2022/07/23 07:02:22;;;;;;;12.97;10.60;;;26.10;36.00;;;;;;4969393;28;20210;-74
2022/07/23 07:04:48;;;;;;;16.00;11.10;;;26.00;37.20;;;;;;4970659;28;20224;-74
2022/07/23 07:07:14;;;;;;;15.03;10.03;;;26.00;36.70;;;;;;4969240;28;20186;-73
2022/07/23 07:09:40;;;;;;;13.33;10.50;;;26.30;35.80;;;;;;4968572;28;21053;-74
2022/07/23 07:12:05;;;;;;;13.53;11.27;;;26.40;36.60;;;;;;4968125;28;20218;-74
2022/07/23 07:14:31;;;;;;;13.60;11.47;;;26.00;37.50;;;;;;4967795;28;20201;-74
2022/07/23 07:16:56;;;;;;;21.73;11.13;;;26.00;38.00;;;;;;4968984;28;20757;-74
2022/07/23 07:19:22;;;;;;;13.20;10.60;;;25.70;37.60;;;;;;4967582;28;20616;-73
2022/07/23 07:21:48;;;;;;;15.97;10.17;;;25.70;38.40;;;;;;4968323;28;20253;-73
2022/07/23 07:24:13;;;;;;;13.23;10.47;;;26.40;36.70;;;;;;4971535;28;20261;-74
2022/07/23 07:26:39;;;;;;;17.10;11.40;;;26.50;37.30;;;;;;4972437;28;20191;-74
2022/07/23 07:29:05;;;;;;;11.83;9.67;;;27.30;35.50;;;;;;4974614;28;20198;-74
2022/07/23 07:31:31;;;;;;;13.47;10.70;;;27.50;32.60;;;;;;4974879;28;20234;-73
2022/07/23 07:33:58;;;;;;;18.07;11.20;;;27.70;33.20;;;;;;4975457;28;20420;-73
2022/07/23 07:36:23;;;;;;;13.20;10.70;;;27.80;33.00;;;;;;4976098;28;20503;-74
2022/07/23 07:38:49;;;;;;;14.20;10.10;;;28.00;31.40;;;;;;4975172;28;20469;-74
2022/07/23 07:41:15;;;;;;;17.47;9.70;;;27.80;29.60;;;;;;4973356;28;20224;-74
2022/07/23 07:43:41;;;;;;;13.40;10.77;;;27.70;30.60;;;;;;4975566;28;20178;-74
2022/07/23 07:46:09;;;;;;;30.93;24.63;;;27.20;30.00;;;;;;4973382;28;20913;-73
2022/07/23 07:48:36;;;;;;;14.57;9.27;;;26.20;31.20;;;;;;4968940;28;20194;-74
2022/07/23 07:51:02;;;;;;;11.20;9.40;;;26.10;31.70;;;;;;4972716;28;20469;-73
2022/07/23 07:53:28;;;;;;;9.73;8.87;;;26.50;33.40;;;;;;4975426;28;20917;-74
2022/07/23 07:55:53;;;;;;;16.27;9.70;;;26.70;31.10;;;;;;4975560;28;20198;-74
2022/07/23 07:58:19;;;;;;;12.33;9.67;;;27.30;31.70;;;;;;4975342;28;20226;-74
2022/07/23 08:00:44;;;;;;;12.93;9.10;;;28.20;28.40;;;;;;4973344;28;20273;-74
2022/07/23 08:03:10;;;;;;;13.03;9.20;;;28.30;29.00;;;;;;4975262;28;20558;-74
2022/07/23 08:05:35;;;;;;;10.60;8.80;;;28.70;27.00;;;;;;4975482;28;20233;-74
2022/07/23 08:08:01;;;;;;;10.67;8.70;;;28.80;27.50;;;;;;4974211;28;20809;-74
2022/07/23 08:10:28;;;;;;;12.63;8.70;;;28.70;27.60;;;;;;4974486;28;20190;-75
2022/07/23 08:12:58;;;;;;;10.70;9.03;;;28.70;27.60;;;;;;4974369;28;20190;-74
2022/07/23 08:15:26;;;;;;;10.70;8.90;;;28.70;27.60;;;;;;4974237;28;20525;-74
2022/07/23 08:17:52;;;;;;;11.73;8.50;;;28.80;26.30;;;;;;4975166;28;20437;-75
2022/07/23 08:20:21;;;;;;;11.60;9.67;;;28.90;27.40;;;;;;4974457;28;20457;-75
2022/07/23 08:23:03;;;;;;;16.50;8.70;;;27.30;28.90;;;;;;4974549;28;20441;-75
2022/07/23 08:25:32;;;;;;;18.03;9.50;;;27.30;29.40;;;;;;4975060;28;20942;-75
2022/07/23 08:27:59;;;;;;;19.53;10.27;;;27.10;30.80;;;;;;4973690;28;20521;-74
2022/07/23 08:30:25;;;;;;;12.80;10.67;;;26.90;33.20;;;;;;4973573;28;20425;-74
2022/07/23 08:33:13;;;;;;;13.70;10.40;;;26.90;32.80;;;;;;4974271;28;20512;-74
2022/07/23 08:35:42;;;;;;;16.53;10.20;;;27.00;35.90;;;;;;4955494;29;20454;-74
2022/07/23 08:38:10;;;;;;;16.53;12.10;;;27.10;34.50;;;;;;4963828;28;20441;-74
2022/07/23 08:40:40;;;;;;;12.63;10.37;;;27.10;33.40;;;;;;4973603;28;20444;-74
2022/07/23 08:43:08;;;;;;;13.63;10.40;;;27.10;34.00;;;;;;4973948;28;20897;-74
2022/07/23 08:45:40;;;;;;;15.17;10.63;;;27.40;33.20;;;;;;4973840;28;20441;-75
2022/07/23 08:48:08;;;;;;;12.63;9.83;;;28.00;32.60;;;;;;4973724;28;20512;-73
2022/07/23 08:50:38;;;;;;;13.47;10.20;;;27.70;31.90;;;;;;4972507;28;20818;-75
2022/07/23 08:53:07;;;;;;;16.90;10.13;;;27.40;31.40;;;;;;4972552;28;20528;-75
2022/07/23 08:55:32;;;;;;;15.97;10.50;;;27.70;30.70;;;;;;4970298;28;20520;-75
2022/07/23 08:57:58;;;;;;;11.50;10.30;;;28.10;29.80;;;;;;4973603;28;20524;-75
2022/07/23 09:00:24;;;;;;;16.03;11.20;;;27.90;29.70;;;;;;4971273;28;20236;-75
2022/07/23 09:02:51;;;;;;;14.10;10.47;;;27.90;30.00;;;;;;4971182;28;20974;-75
2022/07/23 09:05:17;;;;;;;14.57;10.30;;;27.90;30.10;;;;;;4970055;28;20767;-75
2022/07/23 09:08:05;;;;;;;10.23;9.50;;;27.70;31.50;;;;;;4971238;28;20484;-75
2022/07/23 09:10:53;;;;;;;11.43;9.93;;;28.10;30.10;;;;;;4970213;28;20438;-75
2022/07/23 09:13:24;;;;;;;16.20;10.20;;;28.10;29.90;;;;;;4971001;28;20441;-75
2022/07/23 09:15:51;;;;;;;11.70;10.07;;;27.70;31.30;;;;;;4967814;28;20523;-75
2022/07/23 09:18:17;;;;;;;12.80;10.13;;;27.90;29.70;;;;;;4974173;28;20453;-75
2022/07/23 09:20:46;;;;;;;13.00;10.73;;;27.80;30.40;;;;;;4973150;28;20453;-75
2022/07/23 09:23:11;;;;;;;14.40;10.50;;;27.50;30.40;;;;;;4973892;28;20834;-75
2022/07/23 09:25:37;;;;;;;11.43;10.10;;;27.00;31.20;;;;;;4973899;28;20449;-75
2022/07/23 09:28:03;;;;;;;14.30;10.27;;;26.90;32.00;;;;;;4974095;28;20261;-75
2022/07/23 09:30:31;;;;;;;12.50;9.30;;;26.60;31.90;;;;;;4973664;28;20178;-76
2022/07/23 09:33:12;;;;;;;16.30;9.80;;;26.60;32.80;;;;;;4973440;28;20853;-75
2022/07/23 09:35:54;;;;;;;14.23;9.70;;;27.40;31.00;;;;;;4973609;28;20670;-75
2022/07/23 09:38:24;;;;;;;17.80;10.70;;;28.30;32.60;;;;;;4974036;28;20403;-74
2022/07/23 09:41:10;;;;;;;12.20;10.97;;;28.30;30.00;;;;;;4973370;28;20429;-74
2022/07/23 09:43:36;;;;;;;14.10;10.10;;;28.30;29.80;;;;;;4972544;28;20434;-75
2022/07/23 09:46:39;;;;;;;14.33;10.30;;;28.30;30.90;;;;;;4973583;28;20414;-75
2022/07/23 09:49:12;;;;;;;15.43;10.17;;;29.00;28.60;;;;;;4875880;29;20238;-75
2022/07/23 09:51:55;;;;;;;12.07;10.23;;;28.90;29.20;;;;;;4875190;29;20480;-75
2022/07/23 09:54:29;;;;;;;11.50;9.93;;;29.10;29.50;;;;;;4875972;29;20455;-75
2022/07/23 09:56:55;;;;;;;13.20;10.43;;;29.30;28.00;;;;;;4875750;29;20470;-74
2022/07/23 09:59:27;;;;;;;13.50;9.60;;;29.60;29.10;;;;;;4876127;29;20430;-75
2022/07/23 10:01:56;;;;;;;13.20;10.70;;;28.60;28.60;;;;;;4859782;29;20744;-75
2022/07/23 10:04:23;;;;;;;12.47;10.20;;;28.50;29.20;;;;;;4875330;29;20514;-75
2022/07/23 10:06:55;;;;;;;14.23;10.10;;;27.90;31.10;;;;;;4875951;29;20907;-75
2022/07/23 10:09:27;;;;;;;18.13;10.37;;;27.80;31.50;;;;;;4860511;29;20494;-74
2022/07/23 10:11:59;;;;;;;13.13;11.00;;;27.50;31.10;;;;;;4874781;29;20501;-75
2022/07/23 10:14:27;;;;;;;12.50;10.30;;;27.40;33.00;;;;;;4874866;29;20434;-75
2022/07/23 10:16:53;;;;;;;13.83;10.03;;;28.10;30.80;;;;;;4875784;29;20481;-76
2022/07/23 10:19:19;;;;;;;13.37;10.53;;;28.30;30.00;;;;;;4875548;29;20923;-75
2022/07/23 10:21:51;;;;;;;12.33;10.17;;;28.50;29.70;;;;;;4875246;29;20452;-75
2022/07/23 10:24:35;;;;;;;12.30;10.60;;;29.10;28.60;;;;;;4971480;28;20868;-75
2022/07/23 10:27:09;;;;;;;13.13;10.30;;;29.00;29.00;;;;;;4972892;28;20402;-74
2022/07/23 10:29:54;;;;;;;15.30;10.97;;;28.90;28.90;;;;;;4972813;28;20413;-76
2022/07/23 10:32:26;;;;;;;12.93;10.30;;;30.00;28.90;;;;;;4971531;28;21067;-75
2022/07/23 10:35:10;;;;;;;14.60;10.53;;;30.60;25.70;;;;;;4970874;28;20819;-74
2022/07/23 10:37:45;;;;;;;17.33;10.30;;;30.50;26.50;;;;;;4971736;28;20922;-75
2022/07/23 10:40:22;;;;;;;12.00;10.33;;;30.40;25.80;;;;;;4968021;28;20444;-75
2022/07/23 10:42:51;;;;;;;14.20;10.53;;;29.30;27.40;;;;;;4971537;28;20437;-75
2022/07/23 10:45:39;;;;;;;12.30;9.80;;;28.70;28.50;;;;;;4965463;28;20879;-76
2022/07/23 10:48:21;;;;;;;15.80;11.00;;;28.30;29.50;;;;;;4971574;28;20513;-76
2022/07/23 10:51:07;;;;;;;14.50;9.90;;;28.60;28.90;;;;;;4965743;28;20515;-76
2022/07/23 10:54:02;;;;;;;12.50;10.07;;;29.40;29.00;;;;;;4963671;28;20472;-76
2022/07/23 10:57:06;;;;;;;12.90;10.30;;;30.20;27.30;;;;;;4856868;29;20547;-76
2022/07/23 10:59:52;;;;;;;13.33;9.47;;;30.70;27.60;;;;;;4853281;29;20958;-75
2022/07/23 11:02:25;;;;;;;13.00;10.00;;;30.80;25.30;;;;;;4853973;29;20478;-75
2022/07/23 11:04:52;;;;;;;12.93;9.80;;;30.90;25.40;;;;;;4856978;29;20969;-75
2022/07/23 11:07:18;;;;;;;14.10;9.50;;;30.00;25.80;;;;;;4860395;29;20955;-74
2022/07/23 11:09:46;;;;;;;16.60;10.40;;;30.30;26.10;;;;;;4858376;29;20445;-75
2022/07/23 11:12:20;;;;;;;13.27;10.10;;;29.70;26.10;;;;;;4859207;29;20241;-74
2022/07/23 11:15:01;;;;;;;13.40;9.87;;;29.40;25.50;;;;;;4857999;29;20434;-74
2022/07/23 11:17:28;;;;;;;12.50;11.20;;;29.10;27.00;;;;;;4858994;29;20442;-74
2022/07/23 11:20:15;;;;;;;13.93;9.50;;;28.70;28.00;;;;;;4857275;29;20465;-74
2022/07/23 11:22:43;;;;;;;12.10;9.80;;;28.90;28.50;;;;;;4858731;29;20477;-75
2022/07/23 11:25:11;;;;;;;18.77;10.97;;;29.90;26.60;;;;;;4858448;29;20478;-74
2022/07/23 11:27:45;;;;;;;13.63;11.13;;;30.40;23.70;;;;;;4860185;29;20443;-75
2022/07/23 11:30:28;;;;;;;22.37;11.57;;;30.30;24.60;;;;;;4859119;29;20442;-74
2022/07/23 11:33:14;;;;;;;12.20;10.40;;;29.90;26.20;;;;;;4909098;29;20906;-74
2022/07/23 11:35:49;;;;;;;12.40;11.03;;;29.90;25.50;;;;;;4959494;28;20465;-74
2022/07/23 11:38:14;;;;;;;10.70;9.10;;;30.50;25.10;;;;;;4976042;28;20419;-74
2022/07/23 11:40:41;;;;;;;14.43;9.50;;;31.20;24.90;;;;;;4972771;28;20851;-74
2022/07/23 11:43:09;;;;;;;14.13;10.30;;;31.20;25.80;;;;;;4974334;28;20566;-74
2022/07/23 11:45:39;;;;;;;13.47;10.50;;;30.70;23.90;;;;;;4974119;28;20449;-75
2022/07/23 11:48:08;;;;;;;12.50;10.20;;;29.50;26.00;;;;;;4974557;28;20978;-74
2022/07/23 11:50:34;;;;;;;13.37;10.17;;;29.90;26.00;;;;;;4974441;28;20472;-75
2022/07/23 11:52:59;;;;;;;11.80;10.10;;;29.90;26.50;;;;;;4973126;28;20825;-77
2022/07/23 11:55:25;;;;;;;16.63;10.00;;;30.60;26.80;;;;;;4972477;28;20303;-76
2022/07/23 11:57:53;;;;;;;17.40;9.83;;;31.50;25.40;;;;;;4975462;28;20206;-73
2022/07/23 12:00:22;;;;;;;12.10;10.20;;;31.50;24.60;;;;;;4974829;28;20261;-74
2022/07/23 12:02:50;;;;;;;11.60;10.60;;;31.90;24.20;;;;;;4972695;28;20540;-75
2022/07/23 12:05:19;;;;;;;20.07;10.43;;;32.30;22.70;;;;;;4974907;28;20425;-74
2022/07/23 12:07:50;;;;;;;10.87;9.57;;;31.80;23.90;;;;;;4973910;28;20933;-74
2022/07/23 12:10:25;;;;;;;11.30;10.27;;;32.40;24.70;;;;;;4975257;28;20414;-74
2022/07/23 12:12:57;;;;;;;10.47;9.47;;;33.20;22.20;;;;;;4964986;28;20473;-74
2022/07/23 12:15:31;;;;;;;11.20;9.07;;;33.50;21.50;;;;;;4971012;28;20484;-74
2022/07/23 12:17:57;;;;;;;10.23;9.03;;;33.70;21.80;;;;;;4971280;28;20437;-74
2022/07/23 12:20:29;;;;;;;10.10;9.13;;;34.40;21.00;;;;;;4966113;28;20464;-74
2022/07/23 12:22:59;;;;;;;10.43;9.13;;;34.50;20.50;;;;;;4972790;28;20190;-74
2022/07/23 12:25:30;;;;;;;12.03;9.20;;;34.20;20.90;;;;;;4968803;28;20568;-75
2022/07/23 12:28:04;;;;;;;11.77;9.17;;;33.60;19.60;;;;;;4974260;28;21038;-73
2022/07/23 12:30:43;;;;;;;14.97;9.80;;;31.50;21.50;;;;;;4973778;28;20512;-75
2022/07/23 12:33:12;;;;;;;16.43;9.53;;;31.30;21.90;;;;;;4973988;28;20417;-74